Time;durP1;ratioP1;P1;durP2;ratioP2;P2;SDS_P1;SDS_P2;PMS_P1;PMS_P2;Temp;Humidity;BMP_temperature;BMP_pressure;BME280_temperature;BME280_humidity;BME280_pressure;Samples;Min_cycle;Max_cycle;Signal;HPM_P1;HPM_P2
2021/04/28 00:02:12;;;;;;;6.40;3.90;;;;;;;6.57;53.26;97865.50;5091780;28;20561;-80
2021/04/28 00:04:38;;;;;;;6.53;3.78;;;;;;;6.54;52.64;97869.41;5091181;28;20109;-80
2021/04/28 00:07:05;;;;;;;8.43;4.30;;;;;;;6.55;53.09;97867.59;5094945;28;20040;-80
2021/04/28 00:09:32;;;;;;;8.30;3.97;;;;;;;6.49;54.13;97869.16;5091620;28;20546;-80
2021/04/28 00:11:59;;;;;;;7.50;4.10;;;;;;;6.47;53.97;97867.69;5090186;28;20048;-81
2021/04/28 00:14:26;;;;;;;7.25;4.03;;;;;;;6.30;53.52;97850.88;5090281;28;20048;-80
2021/04/28 00:16:52;;;;;;;8.65;4.55;;;;;;;6.29;53.38;97852.75;5091293;28;20044;-79
2021/04/28 00:19:18;;;;;;;7.35;4.38;;;;;;;6.41;54.17;97863.88;5091198;28;20048;-79
2021/04/28 00:21:44;;;;;;;5.65;3.63;;;;;;;6.28;54.21;97859.16;5090713;28;20447;-80
2021/04/28 00:24:11;;;;;;;6.50;3.58;;;;;;;6.03;54.77;97832.50;5104222;28;20131;-80
2021/04/28 00:26:38;;;;;;;7.38;4.35;;;;;;;6.16;54.54;97852.59;5091080;28;20051;-80
2021/04/28 00:29:05;;;;;;;10.32;4.18;;;;;;;6.11;54.96;97849.59;5091161;28;20082;-80
2021/04/28 00:31:31;;;;;;;9.05;4.38;;;;;;;5.95;55.01;97829.06;5084411;28;20063;-80
2021/04/28 00:33:58;;;;;;;9.50;4.57;;;;;;;6.09;55.00;97836.31;5091009;28;20047;-80
2021/04/28 00:36:24;;;;;;;6.13;4.30;;;;;;;5.94;55.50;97821.97;5090384;28;20052;-80
2021/04/28 00:38:51;;;;;;;6.45;3.90;;;;;;;6.07;54.76;97841.06;5090736;28;20487;-79
2021/04/28 00:41:17;;;;;;;7.40;3.90;;;;;;;6.02;54.60;97840.78;5094840;28;20154;-80
2021/04/28 00:43:44;;;;;;;5.88;3.65;;;;;;;5.83;54.60;97824.13;5093650;28;20396;-80
2021/04/28 00:46:12;;;;;;;11.23;4.68;;;;;;;5.93;55.40;97856.22;5105429;28;20055;-80
2021/04/28 00:48:38;;;;;;;6.43;3.88;;;;;;;5.92;55.66;97840.22;5081801;28;20526;-80
2021/04/28 00:51:05;;;;;;;8.60;4.18;;;;;;;5.94;55.80;97844.38;5089490;28;20062;-80
2021/04/28 00:53:31;;;;;;;6.30;4.35;;;;;;;5.88;55.25;97839.75;5102844;28;20077;-80
2021/04/28 00:55:58;;;;;;;6.22;4.72;;;;;;;5.88;55.26;97839.75;5089696;28;20044;-81
2021/04/28 00:58:26;;;;;;;8.30;3.95;;;;;;;5.81;55.99;97842.38;5089170;28;20545;-80
2021/04/28 01:00:53;;;;;;;6.85;4.50;;;;;;;5.95;55.73;97831.75;5090643;28;20048;-80
2021/04/28 01:03:21;;;;;;;7.15;4.30;;;;;;;5.95;54.87;97834.44;5102302;28;20290;-81
2021/04/28 01:05:48;;;;;;;6.78;4.35;;;;;;;5.80;57.22;97835.28;5094395;28;20097;-80
2021/04/28 01:08:16;;;;;;;14.32;3.88;;;;;;;5.80;57.58;97823.69;5103119;28;20503;-80
2021/04/28 01:10:44;;;;;;;11.52;4.45;;;;;;;5.78;56.86;97829.25;5090613;28;20055;-80
2021/04/28 01:13:11;;;;;;;6.93;4.30;;;;;;;5.58;57.36;97820.03;5085865;28;20044;-81
2021/04/28 01:15:39;;;;;;;6.25;4.25;;;;;;;5.44;58.17;97827.94;5106765;28;20048;-81
2021/04/28 01:18:06;;;;;;;7.35;4.18;;;;;;;5.43;58.53;97815.47;5095291;28;20060;-80
2021/04/28 01:20:36;;;;;;;13.27;4.90;;;;;;;5.46;58.31;97830.44;5077273;28;20045;-80
2021/04/28 01:23:04;;;;;;;6.45;3.80;;;;;;;5.59;57.72;97825.25;5082545;28;20163;-81
2021/04/28 01:25:31;;;;;;;8.30;4.32;;;;;;;5.53;57.90;97817.91;5089433;28;20052;-81
2021/04/28 01:28:02;;;;;;;5.85;4.57;;;;;;;5.53;57.99;97825.16;5090273;28;20044;-81
2021/04/28 01:30:31;;;;;;;12.98;4.97;;;;;;;5.35;58.47;97809.34;5097309;28;20051;-81
2021/04/28 01:32:57;;;;;;;9.07;4.95;;;;;;;5.26;58.42;97803.22;5108846;28;20048;-81
2021/04/28 01:35:26;;;;;;;6.55;4.57;;;;;;;5.27;59.04;97821.91;5093776;28;20047;-81
2021/04/28 01:37:53;;;;;;;6.40;4.30;;;;;;;5.18;59.22;97823.00;5093109;28;20076;-80
2021/04/28 01:40:21;;;;;;;11.05;5.05;;;;;;;5.12;59.34;97821.03;5094341;28;20099;-80
2021/04/28 01:42:49;;;;;;;12.77;4.50;;;;;;;4.96;60.25;97814.75;5109655;28;20092;-81
2021/04/28 01:45:17;;;;;;;7.55;4.57;;;;;;;4.99;60.20;97827.03;5093245;28;20101;-80
2021/04/28 01:47:43;;;;;;;10.30;4.57;;;;;;;4.91;60.11;97825.25;5094381;28;20101;-81
2021/04/28 01:50:12;;;;;;;8.27;4.60;;;;;;;4.88;60.85;97814.84;5093979;28;20451;-81
2021/04/28 01:52:41;;;;;;;17.67;4.13;;;;;;;4.91;60.72;97829.81;5101839;28;20055;-81
2021/04/28 01:55:11;;;;;;;8.25;4.75;;;;;;;4.84;60.91;97808.13;5095613;28;20048;-81
2021/04/28 01:57:39;;;;;;;7.57;4.32;;;;;;;4.87;61.10;97820.41;5088855;28;20050;-81
2021/04/28 02:00:09;;;;;;;6.90;4.13;;;;;;;4.90;61.01;97825.44;5108546;28;20097;-81
2021/04/28 02:02:36;;;;;;;4.93;3.88;;;;;;;4.68;61.58;97817.22;5094936;28;20048;-81
2021/04/28 02:05:04;;;;;;;7.15;4.20;;;;;;;4.64;62.11;97821.28;5093565;28;20577;-82
2021/04/28 02:07:31;;;;;;;8.73;4.60;;;;;;;4.75;61.53;97820.84;5093825;28;20060;-81
2021/04/28 02:09:57;;;;;;;7.43;4.47;;;;;;;4.61;61.53;97802.78;5109317;28;20043;-81
2021/04/28 02:12:23;;;;;;;17.98;4.55;;;;;;;4.66;61.38;97813.00;5095987;28;20085;-81
2021/04/28 02:14:54;;;;;;;10.52;4.85;;;;;;;4.75;62.12;97820.84;5093517;28;20052;-81
2021/04/28 02:17:20;;;;;;;;;;;;;;;4.68;62.38;97816.34;5093952;28;20234;-81
2021/04/28 02:19:49;;;;;;;;;;;;;;;4.64;62.53;97815.03;5094471;28;20179;-81
2021/04/28 02:22:16;;;;;;;;;;;;;;;4.64;61.98;97806.97;5115150;28;19969;-81
2021/04/28 02:24:48;;;;;;;;;;;;;;;4.60;62.36;97812.69;5095839;28;20391;-81
2021/04/28 02:27:14;;;;;;;;;;;;;;;4.60;62.45;97815.38;5085601;28;19921;-81
2021/04/28 02:29:40;;;;;;;;;;;;;;;4.54;62.65;97810.72;5092425;28;19931;-81
2021/04/28 02:32:07;;;;;;;;;;;;;;;4.58;62.59;97805.84;5102753;28;19920;-82
2021/04/28 02:34:33;;;;;;;;;;;;;;;4.59;62.24;97811.03;5097800;28;20414;-81
2021/04/28 02:37:01;;;;;;;;;;;;;;;4.68;61.18;97806.44;5093693;28;20390;-81
2021/04/28 02:39:30;;;;;;;;;;;;;;;4.66;61.93;97807.63;5094180;28;19924;-81
2021/04/28 02:41:59;;;;;;;;;;;;;;;4.71;60.96;97806.09;5094033;28;20007;-83
2021/04/28 02:44:30;;;;;;;;;;;;;;;4.65;61.39;97803.25;5114009;28;19923;-81
2021/04/28 02:46:57;;;;;;;;;;;;;;;4.58;61.43;97805.84;5094847;28;19924;-81
2021/04/28 02:49:42;;;;;;;;;;;;;;;4.57;61.92;97804.16;5094078;28;19920;-81
2021/04/28 02:52:08;;;;;;;;;;;;;;;4.61;62.23;97800.09;5093494;28;19920;-81
2021/04/28 02:54:38;;;;;;;;;;;;;;;4.57;61.92;97790.69;5111573;28;20267;-81
2021/04/28 02:57:08;;;;;;;;;;;;;;;4.60;61.85;97793.03;5094160;28;20024;-81
2021/04/28 03:02:27;;;;;;;;;;;;;;;4.55;61.10;97787.38;5092393;28;19931;-81
2021/04/28 03:04:57;;;;;;;;;;;;;;;4.50;62.07;97790.59;5094197;28;19955;-81
2021/04/28 03:07:23;;;;;;;;;;;;;;;4.43;63.33;97793.16;5086466;28;20341;-81
2021/04/28 03:09:55;;;;;;;;;;;;;;;4.48;63.15;97797.16;5094113;28;19927;-81
2021/04/28 03:12:24;;;;;;;;;;;;;;;4.58;62.71;97800.47;5093066;28;20011;-81
2021/04/28 03:14:50;;;;;;;;;;;;;;;4.39;63.83;97797.22;5092283;28;20289;-81
2021/04/28 03:17:21;;;;;;;;;;;;;;;4.27;64.41;97804.03;5093075;28;19924;-81
2021/04/28 03:19:47;;;;;;;;;;;;;;;4.37;63.47;97799.25;5093945;28;20346;-81
2021/04/28 03:22:16;;;;;;;;;;;;;;;4.24;64.49;97805.22;5093427;28;19919;-81
2021/04/28 03:24:42;;;;;;;;;;;;;;;4.16;64.38;97807.13;5092693;28;19920;-81
2021/04/28 03:27:10;;;;;;;;;;;;;;;4.01;64.88;97797.13;5101071;28;19946;-81
2021/04/28 03:29:36;;;;;;;;;;;;;;;4.00;65.54;97800.81;5097202;28;19973;-81
2021/04/28 03:32:02;;;;;;;;;;;;;;;4.13;63.79;97802.94;5090189;28;19924;-82
2021/04/28 03:34:28;;;;;;;;;;;;;;;4.08;64.03;97800.78;5094053;28;19920;-81
2021/04/28 03:36:54;;;;;;;;;;;;;;;3.97;65.21;97798.47;5093031;28;19919;-82
2021/04/28 03:39:21;;;;;;;;;;;;;;;3.84;65.35;97804.44;5092605;28;19931;-81
2021/04/28 03:41:47;;;;;;;;;;;;;;;3.68;66.31;97804.50;5094474;28;20283;-81
2021/04/28 03:44:13;;;;;;;;;;;;;;;3.79;65.79;97800.59;5096649;28;19920;-82
2021/04/28 03:46:39;;;;;;;;;;;;;;;3.81;64.97;97806.63;5086853;28;19951;-81
2021/04/28 03:49:05;;;;;;;;;;;;;;;3.68;66.57;97805.34;5096581;28;19973;-81
2021/04/28 03:51:31;;;;;;;;;;;;;;;3.65;65.92;97802.19;5092410;28;19920;-81
2021/04/28 03:53:58;;;;;;;;;;;;;;;3.62;66.47;97805.22;5092053;28;19965;-82
2021/04/28 03:56:25;;;;;;;;;;;;;;;3.63;66.44;97794.28;5090841;28;19926;-81
2021/04/28 03:58:51;;;;;;;;;;;;;;;3.57;67.27;97797.69;5091012;28;19935;-81
2021/04/28 04:01:18;;;;;;;;;;;;;;;3.59;66.94;97798.31;5092617;28;19926;-81
2021/04/28 04:03:44;;;;;;;;;;;;;;;3.48;67.28;97806.78;5093917;28;19920;-82
2021/04/28 04:06:11;;;;;;;;;;;;;;;3.49;67.53;97801.22;5092431;28;19928;-82
2021/04/28 04:08:42;;;;;;;;;;;;;;;3.51;67.66;97811.81;5093920;28;19967;-85
2021/04/28 04:14:18;;;;;;;;;;;;;;;3.43;67.92;97804.59;5091558;28;19920;-85
2021/04/28 04:17:09;;;;;;;;;;;;;;;;;;;;;
2021/04/28 04:19:47;;;;;;;;;;;;;;;3.45;67.45;97813.34;5092545;28;20307;-85
2021/04/28 04:22:15;;;;;;;;;;;;;;;3.64;66.93;97822.81;5093699;28;19920;-84
2021/04/28 04:24:45;;;;;;;;;;;;;;;3.70;66.55;97823.97;5093279;28;19927;-85
2021/04/28 04:27:13;;;;;;;;;;;;;;;3.64;67.44;97820.13;5096346;28;19924;-84
2021/04/28 04:29:45;;;;;;;;;;;;;;;3.65;66.48;97821.81;5092939;28;19990;-85
2021/04/28 04:32:20;;;;;;;;;;;;;;;3.61;67.23;97820.47;5093864;28;19919;-85
2021/04/28 04:34:54;;;;;;;;;;;;;;;3.58;66.76;97823.50;5093033;28;19919;-85
2021/04/28 04:37:20;;;;;;;;;;;;;;;3.51;68.35;97828.75;5093184;28;19928;-85
2021/04/28 04:43:10;;;;;;;;;;;;;;;3.63;67.85;97836.44;5093135;28;19920;-85
2021/04/28 04:45:37;;;;;;;;;;;;;;;3.78;67.37;97834.72;5075851;28;19968;-85
2021/04/28 04:48:05;;;;;;;;;;;;;;;3.82;67.34;97836.03;5093452;28;19927;-85
2021/04/28 04:50:35;;;;;;;;;;;;;;;3.81;67.38;97834.38;5085439;28;20315;-86
2021/04/28 04:53:02;;;;;;;;;;;;;;;3.70;67.64;97832.03;5081826;28;19969;-85
2021/04/28 04:55:28;;;;;;;;;;;;;;;3.61;68.51;97827.72;5104486;28;19977;-85
2021/04/28 04:57:54;;;;;;;;;;;;;;;3.62;69.17;97829.41;5091921;28;19927;-84
2021/04/28 05:00:21;;;;;;;;;;;;;;;3.68;68.75;97826.84;5092761;28;19931;-84
2021/04/28 05:02:48;;;;;;;;;;;;;;;3.82;68.25;97821.75;5087949;28;20023;-84
2021/04/28 05:05:16;;;;;;;;;;;;;;;3.87;68.57;97822.09;5090296;28;19926;-84
2021/04/28 05:07:42;;;;;;;;;;;;;;;4.00;67.73;97830.41;5084134;28;19920;-84
2021/04/28 05:10:14;;;;;;;;;;;;;;;4.06;68.08;97829.72;5094899;28;19919;-84
2021/04/28 05:12:41;;;;;;;;;;;;;;;4.20;68.11;97833.50;5092214;28;20276;-84
2021/04/28 05:15:08;;;;;;;;;;;;;;;4.34;67.65;97823.81;5091418;28;19941;-84
2021/04/28 05:17:34;;;;;;;;;;;;;;;4.47;66.27;97820.56;5097546;28;19943;-84
2021/04/28 05:20:05;;;;;;;;;;;;;;;4.65;65.06;97824.78;5092737;28;19928;-83
2021/04/28 05:22:38;;;;;;;;;;;;;;;4.89;65.07;97821.91;5087395;28;19925;-83
2021/04/28 05:25:05;;;;;;;;;;;;;;;5.24;63.13;97819.56;5092543;28;19919;-84
2021/04/28 05:28:17;;;;;;;;;;;;;;;;;;;;;
2021/04/28 05:33:31;;;;;;;;;;;;;;;6.43;58.59;97826.75;5089592;28;19928;-84
2021/04/28 05:35:58;;;;;;;;;;;;;;;6.78;57.96;97826.88;5092407;28;19920;-84
2021/04/28 05:38:25;;;;;;;;;;;;;;;7.09;57.26;97825.69;5092626;28;20360;-84
2021/04/28 05:40:51;;;;;;;;;;;;;;;7.18;55.81;97823.66;5099430;28;19930;-83
2021/04/28 05:43:20;;;;;;;;;;;;;;;7.55;54.58;97811.66;5092401;28;19927;-83
2021/04/28 05:45:46;;;;;;;;;;;;;;;7.78;54.14;97814.09;5097629;28;19920;-83
2021/04/28 05:48:14;;;;;;;;;;;;;;;7.88;54.22;97821.84;5106439;28;19920;-80
2021/04/28 05:50:45;;;;;;;;;;;;;;;8.22;53.38;97825.53;5093102;28;19920;-85
2021/04/28 05:53:12;;;;;;;;;;;;;;;8.46;52.06;97828.75;5092622;28;19920;-83
2021/04/28 05:55:39;;;;;;;;;;;;;;;8.71;51.57;97823.59;5084591;28;19920;-83
2021/04/28 05:58:06;;;;;;;;;;;;;;;9.06;50.67;97822.59;5100711;28;19919;-83
2021/04/28 06:00:32;;;;;;;;;;;;;;;9.17;50.68;97819.28;5095453;28;19919;-83
2021/04/28 06:02:58;;;;;;;;;;;;;;;9.05;50.61;97829.91;5091857;28;20448;-83
2021/04/28 06:05:25;;;;;;;;;;;;;;;9.50;50.00;97813.81;5092114;28;19920;-82
2021/04/28 06:08:24;;;;;;;;;;;;;;;9.77;49.89;97816.50;5086185;28;19966;-83
2021/04/28 06:10:55;;;;;;;;;;;;;;;10.22;49.08;97821.13;5091690;28;19974;-82
2021/04/28 06:13:21;;;;;;;;;;;;;;;10.30;50.00;97826.31;5090776;28;19924;-82
2021/04/28 06:15:48;;;;;;;;;;;;;;;10.48;49.70;97819.34;5089716;28;20022;-82
2021/04/28 06:18:14;;;;;;;;;;;;;;;10.54;49.69;97822.03;5089839;28;19927;-83
2021/04/28 06:20:43;;;;;;;;;;;;;;;10.80;48.86;97814.78;5095992;28;20429;-82
2021/04/28 06:25:53;;;;;;;;;;;;;;;11.15;48.65;97798.84;5113170;27;20291;-82
2021/04/28 06:28:22;;;;;;;;;;;;;;;11.13;48.98;97803.66;5117986;28;19955;-82
2021/04/28 06:30:48;;;;;;;;;;;;;;;11.46;48.56;97810.69;5101918;28;19920;-82
2021/04/28 06:33:14;;;;;;;;;;;;;;;11.64;47.95;97807.16;5102933;28;20314;-82
2021/04/28 06:35:41;;;;;;;;;;;;;;;11.86;47.81;97806.72;5103699;28;20323;-81
2021/04/28 06:38:07;;;;;;;;;;;;;;;12.31;46.44;97803.69;5095237;28;20383;-82
2021/04/28 06:40:34;;;;;;;;;;;;;;;12.08;47.12;97811.75;5109016;28;19967;-81
2021/04/28 06:43:01;;;;;;;;;;;;;;;12.40;47.00;97809.66;5097152;28;19923;-81
2021/04/28 06:45:27;;;;;;;;;;;;;;;12.75;45.79;97807.09;5096034;28;19927;-81
2021/04/28 06:47:53;;;;;;;;;;;;;;;12.93;45.80;97805.34;5096606;28;19920;-81
2021/04/28 06:50:20;;;;;;;;;;;;;;;13.47;44.69;97801.78;5095885;28;19919;-81
2021/04/28 06:55:49;;;;;;;;;;;;;;;13.98;45.23;97798.31;5076780;28;19998;-81
2021/04/28 06:58:17;;;;;;;;;;;;;;;14.51;43.43;97801.00;5096944;28;20413;-81
2021/04/28 07:00:43;;;;;;;;;;;;;;;14.63;43.47;97800.97;5095208;28;20375;-81
2021/04/28 07:03:09;;;;;;;;;;;;;;;14.60;43.83;97806.91;5095233;28;19927;-81
2021/04/28 07:05:35;;;;;;;;;;;;;;;14.45;44.38;97805.56;5095960;28;20276;-81
2021/04/28 07:08:01;;;;;;;;;;;;;;;14.79;44.97;97805.66;5096338;28;19923;-81
2021/04/28 07:10:27;;;;;;;;;;;;;;;14.69;43.88;97809.06;5095946;28;19920;-82
2021/04/28 07:12:53;;;;;;;;;;;;;;;14.82;43.77;97804.34;5095752;28;19928;-81
2021/04/28 07:15:21;;;;;;;;;;;;;;;14.80;44.02;97809.25;5096097;28;19921;-81
2021/04/28 07:17:47;;;;;;;;;;;;;;;15.14;43.25;97799.16;5095862;28;19927;-81
2021/04/28 07:20:14;;;;;;;;;;;;;;;15.34;43.73;97806.06;5096235;28;19973;-81
2021/04/28 07:22:40;;;;;;;;;;;;;;;15.58;42.36;97806.69;5096042;28;19923;-81
2021/04/28 07:25:07;;;;;;;;;;;;;;;15.38;43.16;97808.03;5090721;28;20295;-82
2021/04/28 07:27:43;;;;;;;;;;;;;;;;;;;;;
2021/04/28 07:30:10;;;;;;;;;;;;;;;15.45;42.52;97807.06;5101621;28;20378;-81
2021/04/28 07:32:37;;;;;;;;;;;;;;;15.38;42.60;97807.22;5096162;28;20287;-80
2021/04/28 07:35:04;;;;;;;;;;;;;;;15.66;43.08;97810.94;5086823;28;19965;-81
2021/04/28 07:37:30;;;;;;;;;;;;;;;15.81;43.06;97805.72;5095666;28;20371;-81
2021/04/28 07:39:56;;;;;;;;;;;;;;;15.88;42.61;97805.53;5095498;28;19946;-81
2021/04/28 07:42:22;;;;;;;;;;;;;;;16.07;43.22;97803.31;5095657;28;19972;-82
2021/04/28 07:44:48;;;;;;;;;;;;;;;16.05;41.91;97808.25;5095345;28;19924;-82
2021/04/28 07:47:15;;;;;;;;;;;;;;;16.10;41.89;97803.63;5095485;28;20341;-82
2021/04/28 07:49:42;;;;;;;;;;;;;;;16.05;41.40;97802.75;5095318;28;19931;-81
2021/04/28 07:52:08;;;;;;;;;;;;;;;16.21;42.23;97806.50;5102649;28;19920;-82
2021/04/28 07:54:34;;;;;;;;;;;;;;;16.15;41.59;97804.78;5107125;28;19935;-82
2021/04/28 07:57:01;;;;;;;;;;;;;;;16.21;42.42;97807.38;5095503;28;19920;-81
2021/04/28 07:59:27;;;;;;;;;;;;;;;16.21;42.38;97804.63;5093898;28;19920;-82
2021/04/28 08:01:53;;;;;;;;;;;;;;;16.28;41.84;97793.44;5084868;28;19927;-81
2021/04/28 08:04:22;;;;;;;;;;;;;;;16.43;42.12;97790.88;5094957;28;19980;-82
2021/04/28 08:06:49;;;;;;;;;;;;;;;16.40;41.78;97796.88;5094734;28;19927;-82
2021/04/28 08:09:15;;;;;;;;;;;;;;;16.58;42.10;97795.72;5095220;28;19920;-82
2021/04/28 08:11:42;;;;;;;;;;;;;;;16.20;42.80;97797.47;5094440;28;20359;-81
2021/04/28 08:14:08;;;;;;;;;;;;;;;16.59;40.97;97786.41;5093905;28;19920;-82
2021/04/28 08:16:34;;;;;;;;;;;;;;;16.63;43.00;97792.19;5095073;28;19920;-82
2021/04/28 08:19:00;;;;;;;;;;;;;;;16.71;40.75;97796.41;5094924;28;19920;-82
2021/04/28 08:21:26;;;;;;;;;;;;;;;16.75;40.66;97792.06;5094969;28;19927;-82
2021/04/28 08:23:53;;;;;;;;;;;;;;;17.02;41.98;97791.25;5094837;28;20395;-82
2021/04/28 08:26:19;;;;;;;;;;;;;;;16.83;40.43;97793.50;5094369;28;19928;-82
2021/04/28 08:28:46;;;;;;;;;;;;;;;16.99;40.13;97798.91;5094459;28;19935;-82
2021/04/28 08:31:13;;;;;;;;;;;;;;;16.78;42.47;97792.34;5094672;28;19947;-82
2021/04/28 08:33:39;;;;;;;;;;;;;;;17.04;43.20;97789.06;5094480;28;19920;-82
2021/04/28 08:36:08;;;;;;;;;;;;;;;16.90;40.39;97781.25;5094560;28;19920;-82
2021/04/28 08:38:34;;;;;;;;;;;;;;;17.20;44.19;97790.03;5094775;28;20018;-82
2021/04/28 08:41:03;;;;;;;;;;;;;;;17.27;42.46;97794.22;5093934;28;19924;-82
2021/04/28 08:43:29;;;;;;;;;;;;;;;17.40;40.64;97786.63;5093774;28;19923;-82
2021/04/28 08:45:55;;;;;;;;;;;;;;;17.50;42.13;97784.78;5094081;28;19927;-82
2021/04/28 08:48:22;;;;;;;;;;;;;;;17.47;41.83;97781.75;5094343;28;19924;-82
2021/04/28 08:50:49;;;;;;;;;;;;;;;17.58;40.78;97782.63;5094177;28;19974;-82
2021/04/28 08:53:18;;;;;;;;;;;;;;;17.67;40.07;97775.53;5094354;28;19920;-82
2021/04/28 08:55:45;;;;;;;;;;;;;;;17.67;41.88;97773.66;5094626;28;19923;-82
2021/04/28 08:58:12;;;;;;;;;;;;;;;17.82;41.48;97780.31;5094185;28;19924;-82
2021/04/28 09:00:38;;;;;;;;;;;;;;;17.81;39.86;97774.00;5093480;28;19920;-82
2021/04/28 09:03:04;;;;;;;;;;;;;;;17.83;41.07;97776.47;5094543;28;19923;-82
2021/04/28 09:05:32;;;;;;;;;;;;;;;17.93;38.87;97768.31;5094156;28;20253;-82
2021/04/28 09:07:58;;;;;;;;;;;;;;;18.10;39.04;97770.88;5094006;28;19924;-82
2021/04/28 09:10:25;;;;;;;;;;;;;;;18.19;37.08;97768.44;5093932;28;19920;-81
2021/04/28 09:12:53;;;;;;;;;;;;;;;18.02;38.61;97769.47;5092935;28;19935;-82
2021/04/28 09:15:35;;;;;;;;;;;;;;;18.25;38.91;97769.31;5093650;28;19920;-82
2021/04/28 09:18:01;;;;;;;;;;;;;;;17.68;37.28;97768.97;5093814;28;19924;-82
2021/04/28 09:20:30;;;;;;;;;;;;;;;17.62;36.44;97773.59;5094233;28;19927;-82
2021/04/28 09:23:03;;;;;;;;;;;;;;;17.81;37.35;97756.66;5093708;28;20006;-82
2021/04/28 09:25:47;;;;;;;;;;;;;;;17.97;38.40;97755.69;5093881;28;20401;-82
2021/04/28 09:28:23;;;;;;;;;;;;;;;18.19;37.43;97762.94;5093963;28;19920;-82
2021/04/28 09:30:51;;;;;;;;;;;;;;;18.18;37.38;97770.34;5094217;28;19942;-82
2021/04/28 09:33:17;;;;;;;;;;;;;;;18.36;37.06;97762.72;5094088;28;19920;-82
2021/04/28 09:35:43;;;;;;;;;;;;;;;18.28;36.48;97768.75;5093699;28;20394;-83
2021/04/28 09:38:10;;;;;;;;;;;;;;;18.36;38.08;97754.47;5095431;28;19924;-83
2021/04/28 09:40:41;;;;;;;;;;;;;;;18.62;36.74;97757.28;5093998;28;19927;-83
2021/04/28 09:43:08;;;;;;;;;;;;;;;18.81;37.98;97766.69;5093304;28;19920;-83
2021/04/28 09:45:38;;;;;;;;;;;;;;;18.70;37.11;97762.28;5093230;28;19963;-83
2021/04/28 09:48:06;;;;;;;;;;;;;;;18.76;37.56;97758.44;5093668;28;19927;-83
2021/04/28 09:50:35;;;;;;;;;;;;;;;18.85;35.46;97756.81;5093686;28;19920;-83
2021/04/28 09:53:04;;;;;;;;;;;;;;;18.67;35.62;97751.81;5093320;28;19977;-83
2021/04/28 09:55:48;;;;;;;;;;;;;;;18.58;36.61;97757.03;5097531;28;19965;-84
2021/04/28 09:58:46;;;;;;;;;;;;;;;18.73;37.12;97751.53;5099575;28;19927;-83
2021/04/28 10:01:14;;;;;;;;;;;;;;;19.01;35.98;97746.63;5100467;28;19920;-83
2021/04/28 10:03:49;;;;;;;;;;;;;;;19.37;34.66;97743.88;5097706;28;19924;-84
2021/04/28 10:06:41;;;;;;;;;;;;;;;19.26;34.75;97739.50;5091515;28;19965;-84
2021/04/28 10:09:21;;;;;;;;;;;;;;;19.55;35.68;97736.97;5097833;28;19951;-84
2021/04/28 10:11:49;;;;;;;;;;;;;;;19.56;34.27;97733.09;5096947;28;19951;-84
2021/04/28 10:14:15;;;;;;;;;;;;;;;19.64;32.43;97742.75;5096570;28;20447;-84
2021/04/28 10:16:45;;;;;;;;;;;;;;;19.53;27.27;97730.91;5095988;28;20393;-83
2021/04/28 10:19:13;;;;;;;;;;;;;;;19.62;28.52;97731.19;5096560;28;19924;-84
2021/04/28 10:21:39;;;;;;;;;;;;;;;19.71;28.61;97725.94;5096599;28;19920;-84
2021/04/28 10:24:06;;;;;;;;;;;;;;;19.90;28.61;97723.41;5096841;28;19919;-84
2021/04/28 10:26:32;;;;;;;;;;;;;;;19.91;26.94;97720.38;5096250;28;19920;-84
2021/04/28 10:28:58;;;;;;;;;;;;;;;19.85;26.65;97720.66;5116526;28;19923;-84
2021/04/28 10:31:25;;;;;;;;;;;;;;;19.84;24.46;97713.50;5108254;28;20287;-84
2021/04/28 10:33:53;;;;;;;;;;;;;;;20.11;25.85;97713.97;5096790;28;20279;-84
2021/04/28 10:36:20;;;;;;;;;;;;;;;20.02;24.17;97717.56;5096631;28;19923;-85
2021/04/28 10:38:53;;;;;;;;;;;;;;;20.21;26.19;97713.06;5095995;28;19945;-85
2021/04/28 10:41:44;;;;;;;;;;;;;;;20.13;23.74;97706.22;5097593;28;19943;-85
2021/04/28 10:44:25;;;;;;;;;;;;;;;20.20;25.34;97705.06;5081163;28;20211;-85
2021/04/28 10:47:11;;;;;;;;;;;;;;;20.52;24.48;97705.44;5106017;28;19924;-85
2021/04/28 10:49:57;;;;;;;;;;;;;;;20.70;26.16;97703.19;5096819;28;19920;-85
2021/04/28 10:52:27;;;;;;;;;;;;;;;20.89;26.83;97700.53;5090805;28;19920;-83
2021/04/28 10:54:55;;;;;;;;;;;;;;;20.82;25.16;97695.34;5095652;28;20368;-83
2021/04/28 10:57:32;;;;;;;;;;;;;;;20.79;23.37;97701.44;5095402;28;19924;-84
2021/04/28 10:59:59;;;;;;;;;;;;;;;20.49;21.68;97700.50;5095910;28;19920;-83
2021/04/28 11:02:29;;;;;;;;;;;;;;;20.64;21.63;97695.97;5095532;28;19919;-84
2021/04/28 11:05:01;;;;;;;;;;;;;;;20.69;21.79;97696.00;5095079;28;19931;-83
2021/04/28 11:07:41;;;;;;;;;;;;;;;20.54;21.35;97694.13;5095704;28;19963;-83
2021/04/28 11:13:21;;;;;;;;;;;;;;;20.23;22.52;97688.78;5094653;28;20606;-83
2021/04/28 11:15:50;;;;;;;;;;;;;;;20.51;22.38;97683.66;5095391;28;19970;-82
2021/04/28 11:24:59;;;;;;;;;;;;;;;21.27;21.42;97689.69;5034892;28;20036;-82
2021/04/28 11:27:58;;;;;;;;;;;;;;;21.08;20.51;97674.97;5094080;28;19934;-82
2021/04/28 11:36:32;;;;;;;;;;;;;;;21.81;22.86;97676.72;5032171;28;19952;-81
2021/04/28 11:38:58;;;;;;;;;;;;;;;21.82;20.87;97677.56;5089909;28;20372;-83
2021/04/28 11:41:27;;;;;;;;;;;;;;;21.88;20.72;97677.19;5095426;28;19920;-84
2021/04/28 11:43:54;;;;;;;;;;;;;;;22.02;21.53;97676.47;5095030;28;19965;-84
2021/04/28 11:46:21;;;;;;;;;;;;;;;22.07;21.27;97679.16;5094222;28;19920;-84
2021/04/28 11:48:48;;;;;;;;;;;;;;;22.15;23.03;97672.19;5095230;28;19927;-83
2021/04/28 11:51:17;;;;;;;;;;;;;;;21.78;20.31;97671.78;5094282;28;19971;-84
2021/04/28 11:53:49;;;;;;;;;;;;;;;21.95;19.99;97667.72;5095230;28;20283;-83
2021/04/28 11:56:38;;;;;;;;;;;;;;;21.67;21.56;97667.50;5106254;28;19920;-83
2021/04/28 11:59:07;;;;;;;;;;;;;;;20.94;21.70;97670.13;5096227;28;19973;-83
2021/04/28 12:01:36;;;;;;;;;;;;;;;21.52;21.41;97662.97;5094844;28;20410;-83
2021/04/28 12:04:05;;;;;;;;;;;;;;;21.76;22.19;97657.44;5094420;28;19965;-83
2021/04/28 12:06:36;;;;;;;;;;;;;;;21.90;21.91;97655.63;5094026;28;19924;-83
2021/04/28 12:09:17;;;;;;;;;;;;;;;21.73;20.99;97653.31;5093756;28;20387;-83
2021/04/28 12:11:45;;;;;;;;;;;;;;;21.90;21.11;97650.06;5090477;28;19924;-83
2021/04/28 12:14:13;;;;;;;;;;;;;;;21.64;20.87;97651.50;5093626;28;19928;-83
2021/04/28 12:16:40;;;;;;;;;;;;;;;21.98;22.68;97647.75;5073341;28;20326;-84
2021/04/28 12:19:07;;;;;;;;;;;;;;;21.91;22.13;97650.88;5090343;28;19927;-84
2021/04/28 12:21:33;;;;;;;;;;;;;;;22.57;23.50;97646.41;5093536;28;19920;-84
2021/04/28 12:23:59;;;;;;;;;;;;;;;22.52;21.23;97638.19;5093721;28;19927;-83
2021/04/28 12:26:25;;;;;;;;;;;;;;;22.45;21.37;97646.84;5093647;28;19924;-83
2021/04/28 12:28:52;;;;;;;;;;;;;;;22.23;22.14;97639.09;5094204;28;19932;-84
2021/04/28 12:31:39;;;;;;;;;;;;;;;22.56;22.07;97635.63;5093592;28;20283;-83
2021/04/28 12:34:05;;;;;;;;;;;;;;;22.39;20.71;97634.22;5093719;28;19920;-82
2021/04/28 12:36:33;;;;;;;;;;;;;;;22.52;20.51;97627.09;5092786;28;19923;-83
2021/04/28 12:39:07;;;;;;;;;;;;;;;22.63;20.42;97619.44;5094601;28;19920;-82
2021/04/28 12:41:33;;;;;;;;;;;;;;;22.06;21.17;97624.97;5093408;28;19926;-84
2021/04/28 12:44:08;;;;;;;;;;;;;;;22.08;20.94;97612.47;5093850;28;20035;-83
2021/04/28 12:46:34;;;;;;;;;;;;;;;22.22;21.09;97620.88;5093348;28;20497;-83
2021/04/28 12:49:02;;;;;;;;;;;;;;;22.52;20.52;97616.03;5085739;28;19919;-82
2021/04/28 12:51:29;;;;;;;;;;;;;;;22.55;21.17;97609.88;5107912;28;19977;-84
2021/04/28 12:53:55;;;;;;;;;;;;;;;22.69;21.35;97603.56;5085591;28;19920;-84
2021/04/28 12:56:25;;;;;;;;;;;;;;;22.73;20.92;97607.38;5092025;28;20295;-84
2021/04/28 12:58:52;;;;;;;;;;;;;;;22.65;20.99;97606.13;5089403;28;19927;-84
2021/04/28 13:01:24;;;;;;;;;;;;;;;22.86;20.76;97603.81;5088123;28;20506;-83
2021/04/28 13:04:04;;;;;;;;;;;;;;;22.71;20.03;97601.31;5091632;28;19942;-84
2021/04/28 13:06:30;;;;;;;;;;;;;;;22.97;20.59;97602.53;5094382;28;20367;-84
2021/04/28 13:08:56;;;;;;;;;;;;;;;22.87;20.46;97599.09;5090960;28;20390;-84
2021/04/28 13:11:22;;;;;;;;;;;;;;;22.76;19.97;97601.22;5091154;28;19924;-83
2021/04/28 13:13:51;;;;;;;;;;;;;;;22.79;20.06;97598.69;5093157;28;19920;-83
2021/04/28 13:16:28;;;;;;;;;;;;;;;22.67;21.01;97591.97;5092362;28;20612;-83
2021/04/28 13:19:05;;;;;;;;;;;;;;;22.48;20.89;97586.44;5094712;28;19980;-84
2021/04/28 13:21:32;;;;;;;;;;;;;;;22.91;20.42;97577.97;5092715;28;19924;-84
2021/04/28 13:24:15;;;;;;;;;;;;;;;23.35;21.97;97573.88;5092570;28;19927;-82